首页
METAR-TAF:

METAR-TAF

机场 :

Flag Island, 明尼蘇達州, 美国

纬度: 49-19N, 经度: 094-54W, 海拔: 329米

当前天气观测

该预报发布于19分钟前的22:55 UTC
风速10节,风向
温度 20°C
湿度 68%
气压 1015 hPa
能見度: 8.0公里
散云层高于9500英尺

METAR: KFGN 142255Z AUTO 17010KT 5SM HZ SCT095 20/14 A2996 RMK AO2

时间: 18:14 (23:14 UTC)


TAF: 丢失

超过4000个机场的气象观测和天气预报(METAR&TAF报告)。

可查询的气象台以黄色和红色小点在地图上表示。

将鼠标移到小点上方,可查看气象台名称。

然后点击查看天气观测和预报。

如需切换地图:点击带黑十字的绿色按钮放大地图;点击带横线的绿色按钮缩小地图;或者点击绿色箭头查看邻近地区的地图。


METAR-TAF: